Time;durP1;ratioP1;P1;durP2;ratioP2;P2;SDS_P1;SDS_P2;PMS_P1;PMS_P2;Temp;Humidity;BMP_temperature;BMP_pressure;BME280_temperature;BME280_humidity;BME280_pressure;Samples;Min_cycle;Max_cycle;Signal;HPM_P1;HPM_P2
2023/11/28 00:01:25;;;;;;;13.93;11.90;;;;;;;1.46;100.00;97163.94;5100161;28;20246;-80
2023/11/28 00:03:58;;;;;;;14.23;10.77;;;;;;;1.49;100.00;97174.06;5103528;28;20255;-80
2023/11/28 00:06:28;;;;;;;12.40;10.83;;;;;;;1.45;100.00;97169.41;5099652;28;20216;-81
2023/11/28 00:08:55;;;;;;;13.50;11.30;;;;;;;1.46;100.00;97171.03;5102219;28;20191;-80
2023/11/28 00:11:22;;;;;;;13.43;11.23;;;;;;;1.48;100.00;97184.81;5082967;28;20183;-82
2023/11/28 00:13:56;;;;;;;12.73;10.30;;;;;;;1.49;100.00;97183.81;5083966;28;20188;-79
2023/11/28 00:16:23;;;;;;;13.53;11.33;;;;;;;1.47;100.00;97177.94;5078076;28;20192;-80
2023/11/28 00:18:52;;;;;;;13.90;11.57;;;;;;;1.46;100.00;97192.94;5097523;28;20187;-78
2023/11/28 00:21:21;;;;;;;13.90;12.40;;;;;;;1.44;100.00;97183.66;5100961;28;20251;-79
2023/11/28 00:23:49;;;;;;;14.00;12.50;;;;;;;1.46;100.00;97179.75;5100020;28;20282;-80
2023/11/28 00:26:21;;;;;;;16.30;12.93;;;;;;;1.46;100.00;97194.78;5107107;28;20188;-81
2023/11/28 00:28:56;;;;;;;14.20;12.67;;;;;;;1.39;100.00;97196.69;5108100;28;20196;-79
2023/11/28 00:31:25;;;;;;;14.43;12.77;;;;;;;1.37;100.00;97206.66;5096562;28;20241;-81
2023/11/28 00:33:52;;;;;;;16.47;12.77;;;;;;;1.30;100.00;97206.75;5112106;28;20190;-78
2023/11/28 00:36:19;;;;;;;15.07;13.40;;;;;;;1.31;100.00;97200.41;5080749;28;20204;-79
2023/11/28 00:38:48;;;;;;;14.33;12.83;;;;;;;1.35;100.00;97204.25;5073789;28;20739;-80
2023/11/28 00:41:17;;;;;;;15.60;13.40;;;;;;;1.28;100.00;97199.03;5107597;28;20202;-81
2023/11/28 00:43:43;;;;;;;17.17;13.40;;;;;;;1.28;100.00;97193.75;5086085;28;20210;-81
2023/11/28 00:46:13;;;;;;;16.33;13.30;;;;;;;1.23;100.00;97196.25;5075310;28;20205;-80
2023/11/28 00:48:41;;;;;;;16.30;13.87;;;;;;;1.28;100.00;97196.41;5095283;28;20267;-80
2023/11/28 00:51:18;;;;;;;17.60;14.33;;;;;;;1.23;100.00;97190.16;5100758;28;20192;-80
2023/11/28 00:53:45;;;;;;;16.57;14.27;;;;;;;1.19;100.00;97194.28;5094951;28;20292;-80
2023/11/28 00:56:19;;;;;;;17.93;13.53;;;;;;;1.19;100.00;97196.91;5094947;28;20191;-80
2023/11/28 00:58:46;;;;;;;15.63;13.27;;;;;;;1.17;100.00;97194.47;5093237;28;20207;-80
2023/11/28 01:01:14;;;;;;;16.37;14.00;;;;;;;1.18;100.00;97206.66;5106987;28;20302;-80
2023/11/28 01:03:49;;;;;;;17.37;13.53;;;;;;;1.16;100.00;97202.63;5096803;28;20180;-80
2023/11/28 01:06:16;;;;;;;17.73;14.07;;;;;;;1.16;100.00;97194.72;5095203;28;20188;-81
2023/11/28 01:08:46;;;;;;;15.70;13.47;;;;;;;1.17;100.00;97194.47;5094347;28;20640;-80
2023/11/28 01:11:15;;;;;;;18.67;14.77;;;;;;;1.17;100.00;97204.22;5077219;28;20183;-80
2023/11/28 01:13:42;;;;;;;15.87;13.93;;;;;;;1.17;100.00;97197.13;5093375;28;20188;-80
2023/11/28 01:16:12;;;;;;;17.80;14.13;;;;;;;1.16;100.00;97189.44;5093241;28;20227;-80
2023/11/28 01:18:39;;;;;;;15.70;13.40;;;;;;;1.17;100.00;97191.03;5094596;28;20192;-79
2023/11/28 01:21:06;;;;;;;17.17;14.40;;;;;;;1.18;100.00;97190.81;5076281;28;20265;-81
2023/11/28 01:23:35;;;;;;;16.33;14.20;;;;;;;1.16;100.00;97187.63;5060228;28;20196;-80
2023/11/28 01:26:06;;;;;;;15.83;13.87;;;;;;;1.20;100.00;97187.97;5094426;28;20264;-79
2023/11/28 01:28:37;;;;;;;16.03;14.30;;;;;;;1.19;100.00;97173.16;5094248;28;20176;-80
2023/11/28 01:31:06;;;;;;;17.30;14.73;;;;;;;1.19;100.00;97175.81;5076631;28;20193;-81
2023/11/28 01:33:33;;;;;;;16.70;14.30;;;;;;;1.15;100.00;97167.53;5076131;28;20229;-79
2023/11/28 01:36:06;;;;;;;17.93;15.57;;;;;;;1.20;100.00;97175.59;5094465;28;20200;-80
2023/11/28 01:38:35;;;;;;;17.60;15.30;;;;;;;1.21;100.00;97165.84;5094289;28;20204;-80
2023/11/28 01:41:02;;;;;;;17.37;13.90;;;;;;;1.22;100.00;97173.53;5092566;28;20212;-80
2023/11/28 01:43:29;;;;;;;16.93;13.87;;;;;;;1.20;100.00;97164.25;5075991;28;20279;-80
2023/11/28 01:46:03;;;;;;;17.53;14.70;;;;;;;1.14;100.00;97154.56;5093991;28;20302;-81
2023/11/28 01:48:31;;;;;;;16.10;14.17;;;;;;;1.21;100.00;97160.59;5092919;28;20267;-79
2023/11/28 01:51:01;;;;;;;16.73;14.30;;;;;;;1.18;100.00;97161.00;5092782;28;20227;-82
2023/11/28 01:53:32;;;;;;;16.67;14.03;;;;;;;1.20;100.00;97154.50;5092845;28;20233;-80
2023/11/28 01:56:00;;;;;;;16.87;14.60;;;;;;;1.15;100.00;97153.53;5093028;28;20188;-78
2023/11/28 01:58:31;;;;;;;18.10;15.00;;;;;;;1.13;100.00;97142.41;5075543;28;20253;-80
2023/11/28 02:00:59;;;;;;;16.97;14.63;;;;;;;1.07;100.00;97140.66;5092539;28;20223;-81
2023/11/28 02:03:27;;;;;;;17.37;15.00;;;;;;;1.10;100.00;97129.66;5077902;28;20212;-81
2023/11/28 02:05:54;;;;;;;17.80;14.63;;;;;;;1.03;100.00;97131.53;5097543;28;20687;-81
2023/11/28 02:08:22;;;;;;;15.97;14.33;;;;;;;1.04;100.00;97135.81;5078551;28;20196;-80
2023/11/28 02:10:49;;;;;;;19.00;14.33;;;;;;;0.94;100.00;97133.66;5105078;28;20183;-79
2023/11/28 02:13:16;;;;;;;16.00;14.30;;;;;;;0.96;100.00;97142.19;5098070;28;20203;-79
2023/11/28 02:15:44;;;;;;;18.80;15.40;;;;;;;1.02;100.00;97140.50;5074325;28;20204;-80
2023/11/28 02:18:18;;;;;;;16.90;14.67;;;;;;;1.09;100.00;97139.41;5078219;28;20275;-82
2023/11/28 02:20:45;;;;;;;16.87;14.77;;;;;;;1.07;100.00;97130.09;5096999;28;20203;-80
2023/11/28 02:23:14;;;;;;;16.50;14.17;;;;;;;0.99;100.00;97136.47;5092866;28;20225;-80
2023/11/28 02:25:48;;;;;;;17.40;14.67;;;;;;;1.00;100.00;97122.25;5100921;28;20245;-82
2023/11/28 02:28:19;;;;;;;16.43;14.63;;;;;;;0.97;100.00;97122.72;5099860;28;20206;-81
2023/11/28 02:30:47;;;;;;;17.10;14.77;;;;;;;0.96;100.00;97133.47;5082355;28;20208;-80
2023/11/28 02:33:16;;;;;;;16.70;14.90;;;;;;;0.92;100.00;97117.28;5087501;28;20192;-79
2023/11/28 02:35:50;;;;;;;16.93;14.33;;;;;;;0.98;100.00;97124.28;5099968;28;20184;-78
2023/11/28 02:38:20;;;;;;;17.63;14.23;;;;;;;0.93;100.00;97118.91;5105640;28;20199;-80
2023/11/28 02:40:46;;;;;;;17.20;14.43;;;;;;;0.97;100.00;97112.16;5080799;28;20223;-80
2023/11/28 02:43:20;;;;;;;16.33;14.63;;;;;;;0.98;100.00;97103.19;5096388;28;20214;-80
2023/11/28 02:45:46;;;;;;;18.33;14.70;;;;;;;1.01;100.00;97094.06;5103355;28;20206;-78
2023/11/28 02:48:15;;;;;;;18.20;14.13;;;;;;;1.03;100.00;97086.72;5085055;28;20191;-80
2023/11/28 02:50:47;;;;;;;16.30;13.80;;;;;;;1.04;100.00;97085.69;5096521;28;20231;-81
2023/11/28 02:53:21;;;;;;;16.73;14.37;;;;;;;1.07;100.00;97088.72;5097005;28;20206;-80
2023/11/28 02:55:48;;;;;;;17.23;14.13;;;;;;;1.10;100.00;97087.47;5102214;28;20269;-81
2023/11/28 02:58:14;;;;;;;16.63;14.13;;;;;;;1.13;100.00;97090.47;5098825;28;20187;-80
2023/11/28 03:00:42;;;;;;;17.57;14.47;;;;;;;1.13;100.00;97081.75;5093414;28;20207;-79
2023/11/28 03:03:09;;;;;;;19.37;15.13;;;;;;;1.14;100.00;97076.25;5080064;28;20690;-80
2023/11/28 03:05:38;;;;;;;18.30;14.57;;;;;;;1.18;100.00;97079.25;5112856;28;20675;-80
2023/11/28 03:08:06;;;;;;;17.73;15.53;;;;;;;1.19;100.00;97078.22;5106796;28;20652;-80
2023/11/28 03:10:33;;;;;;;17.30;14.83;;;;;;;1.20;100.00;97082.47;5096477;28;20200;-79
2023/11/28 03:13:02;;;;;;;17.07;14.97;;;;;;;1.21;100.00;97071.69;5104335;28;20195;-79
2023/11/28 03:15:29;;;;;;;17.97;15.37;;;;;;;1.21;100.00;97078.81;5113925;28;20275;-78
2023/11/28 03:17:58;;;;;;;17.23;14.77;;;;;;;1.21;100.00;97073.53;5097400;28;20204;-80
2023/11/28 03:20:27;;;;;;;16.30;14.33;;;;;;;1.22;100.00;97078.56;5111647;28;20265;-78
2023/11/28 03:22:54;;;;;;;17.57;14.13;;;;;;;1.23;100.00;97080.19;5103421;28;20195;-80
2023/11/28 03:25:31;;;;;;;16.10;14.40;;;;;;;1.25;100.00;97078.16;5096303;28;20229;-79
2023/11/28 03:28:03;;;;;;;20.13;14.63;;;;;;;1.26;100.00;97078.97;5073140;28;20204;-79
2023/11/28 03:30:30;;;;;;;15.57;13.70;;;;;;;1.23;100.00;97072.28;5098338;28;20763;-79
2023/11/28 03:32:57;;;;;;;16.93;14.47;;;;;;;1.22;100.00;97064.59;5096793;28;20189;-78
2023/11/28 03:35:24;;;;;;;17.50;14.80;;;;;;;1.24;100.00;97075.72;5094017;28;20203;-82
2023/11/28 03:37:51;;;;;;;15.40;13.80;;;;;;;1.24;100.00;97060.72;5099225;28;20192;-80
2023/11/28 03:40:21;;;;;;;15.90;14.20;;;;;;;1.23;100.00;97066.19;5101577;28;20220;-81
2023/11/28 03:42:51;;;;;;;16.27;14.30;;;;;;;1.23;100.00;97061.72;5087622;28;20196;-79
2023/11/28 03:45:34;;;;;;;16.87;14.17;;;;;;;1.24;100.00;97058.06;5115154;27;20698;-78
2023/11/28 03:48:08;;;;;;;18.03;14.10;;;;;;;1.23;100.00;97051.19;5093439;28;20187;-80
2023/11/28 03:50:38;;;;;;;17.23;14.93;;;;;;;1.23;100.00;97042.47;5097415;28;20237;-80
2023/11/28 03:53:08;;;;;;;16.83;14.47;;;;;;;1.19;100.00;97038.66;5102739;28;20192;-80
2023/11/28 03:55:36;;;;;;;17.03;14.43;;;;;;;1.18;100.00;97040.50;5102748;28;20200;-80
2023/11/28 03:58:05;;;;;;;17.20;14.47;;;;;;;1.20;100.00;97040.28;5098670;28;20193;-81
2023/11/28 04:00:34;;;;;;;16.17;13.63;;;;;;;1.18;100.00;97032.59;5089579;28;20306;-80
2023/11/28 04:03:01;;;;;;;17.67;14.80;;;;;;;1.18;100.00;97037.03;5115610;28;20191;-80
2023/11/28 04:05:34;;;;;;;17.67;14.83;;;;;;;1.18;100.00;97040.50;5098223;28;20200;-79
2023/11/28 04:08:04;;;;;;;15.70;14.07;;;;;;;1.15;100.00;97038.31;5084752;28;20200;-78
2023/11/28 04:10:31;;;;;;;16.77;14.97;;;;;;;1.16;100.00;97036.47;5093935;28;20283;-82
2023/11/28 04:13:00;;;;;;;17.80;15.50;;;;;;;1.15;100.00;97033.03;5109345;28;20253;-79
2023/11/28 04:15:30;;;;;;;16.30;14.60;;;;;;;1.15;100.00;97034.88;5094050;28;20193;-81
2023/11/28 04:17:57;;;;;;;16.67;14.70;;;;;;;1.15;100.00;97030.41;5100473;28;20310;-80
2023/11/28 04:20:28;;;;;;;16.37;14.57;;;;;;;1.15;100.00;97032.22;5090781;28;20230;-80
2023/11/28 04:22:57;;;;;;;18.30;14.40;;;;;;;1.14;100.00;97039.34;5103193;28;20215;-79
2023/11/28 04:25:23;;;;;;;15.90;14.27;;;;;;;1.12;100.00;97035.31;5102253;28;20200;-80
2023/11/28 04:27:53;;;;;;;16.47;14.20;;;;;;;1.10;100.00;97026.81;5103432;28;20250;-80
2023/11/28 04:30:24;;;;;;;17.07;14.63;;;;;;;1.11;100.00;97038.97;5082184;28;20218;-80
2023/11/28 04:32:52;;;;;;;16.43;14.60;;;;;;;1.14;100.00;97027.97;5094536;28;20671;-82
2023/11/28 04:35:19;;;;;;;16.87;15.07;;;;;;;1.14;100.00;97033.25;5091445;28;20200;-81
2023/11/28 04:37:47;;;;;;;17.70;15.00;;;;;;;1.15;100.00;97035.66;5094605;28;20208;-81
2023/11/28 04:40:15;;;;;;;17.50;14.77;;;;;;;1.12;100.00;97030.03;5080639;28;20203;-82
2023/11/28 04:42:41;;;;;;;17.50;14.93;;;;;;;1.12;100.00;97035.31;5097153;28;20208;-80
2023/11/28 04:45:11;;;;;;;17.27;14.33;;;;;;;1.10;100.00;97035.53;5104090;28;20237;-82
2023/11/28 04:47:38;;;;;;;15.90;14.10;;;;;;;1.14;100.00;97035.88;5097133;28;20204;-81
2023/11/28 04:50:11;;;;;;;18.13;15.47;;;;;;;1.17;100.00;97035.44;5094209;28;20307;-82
2023/11/28 04:52:39;;;;;;;16.73;14.93;;;;;;;1.17;100.00;97032.78;5093103;28;20196;-80
2023/11/28 04:55:09;;;;;;;18.50;15.03;;;;;;;1.15;100.00;97033.03;5090034;28;20214;-80
2023/11/28 04:57:37;;;;;;;16.37;14.33;;;;;;;1.16;100.00;97033.84;5100671;28;20188;-81
2023/11/28 05:00:08;;;;;;;16.80;14.30;;;;;;;1.16;100.00;97029.38;5090192;28;20698;-79
2023/11/28 05:02:40;;;;;;;16.97;15.00;;;;;;;1.18;100.00;97034.41;5099868;28;20240;-80
2023/11/28 05:05:07;;;;;;;17.03;14.77;;;;;;;1.18;100.00;97029.94;5093523;28;20216;-80
2023/11/28 05:07:38;;;;;;;16.90;15.07;;;;;;;1.21;100.00;97040.03;5090659;28;20188;-82
2023/11/28 05:10:07;;;;;;;16.23;14.50;;;;;;;1.21;100.00;97037.41;5103767;28;20209;-81
2023/11/28 05:12:37;;;;;;;17.20;14.77;;;;;;;1.23;100.00;97039.81;5104495;28;20199;-80
2023/11/28 05:15:23;;;;;;;16.93;14.00;;;;;;;1.25;100.00;97033.31;5098784;28;20307;-82
2023/11/28 05:17:52;;;;;;;17.87;14.97;;;;;;;1.27;100.00;97030.44;5064729;28;20249;-79
2023/11/28 05:20:23;;;;;;;16.93;14.77;;;;;;;1.26;100.00;97032.25;5082387;28;20229;-78
2023/11/28 05:22:51;;;;;;;18.40;15.70;;;;;;;1.28;100.00;97034.69;5100621;28;20284;-81
2023/11/28 05:25:21;;;;;;;17.17;14.70;;;;;;;1.32;100.00;97031.38;5100656;28;20210;-80
2023/11/28 05:27:48;;;;;;;16.10;14.33;;;;;;;1.33;100.00;97033.00;5067040;28;20273;-79
2023/11/28 05:30:17;;;;;;;20.07;15.67;;;;;;;1.38;100.00;97034.97;5088110;28;20188;-80
2023/11/28 05:32:43;;;;;;;16.87;14.67;;;;;;;1.38;100.00;97036.78;5093793;28;20200;-80
2023/11/28 05:35:10;;;;;;;16.07;14.37;;;;;;;1.39;100.00;97039.22;5097419;28;20203;-79
2023/11/28 05:37:40;;;;;;;17.47;15.57;;;;;;;1.40;100.00;97034.75;5090980;28;20222;-79
2023/11/28 05:40:10;;;;;;;18.53;14.83;;;;;;;1.40;100.00;97034.75;5104952;28;20210;-79
2023/11/28 05:42:40;;;;;;;16.23;14.27;;;;;;;1.37;100.00;97022.78;5100405;28;20775;-80
2023/11/28 05:45:07;;;;;;;16.93;14.80;;;;;;;1.37;100.00;97028.06;5101985;28;20192;-79
2023/11/28 05:47:36;;;;;;;19.77;15.00;;;;;;;1.37;100.00;97035.97;5103937;28;20249;-79
2023/11/28 05:50:07;;;;;;;19.20;15.43;;;;;;;1.32;100.00;97033.22;5101145;28;20235;-80
2023/11/28 05:52:36;;;;;;;17.87;15.17;;;;;;;1.34;100.00;97025.88;5087575;28;20698;-81
2023/11/28 05:55:09;;;;;;;16.77;14.33;;;;;;;1.34;100.00;97015.34;5096073;28;20290;-79
2023/11/28 05:57:38;;;;;;;18.60;15.33;;;;;;;1.36;100.00;97033.56;5107790;28;20214;-79
2023/11/28 06:00:08;;;;;;;17.67;15.43;;;;;;;1.36;100.00;97025.63;5103520;28;20188;-79
2023/11/28 06:02:55;;;;;;;17.40;15.00;;;;;;;1.37;100.00;97024.63;5039372;28;20658;-80
2023/11/28 06:05:28;;;;;;;18.23;16.17;;;;;;;1.37;100.00;97019.34;5055177;28;20225;-80
2023/11/28 06:07:56;;;;;;;21.93;17.60;;;;;;;1.38;100.00;97020.97;5072910;28;20224;-80
2023/11/28 06:10:26;;;;;;;19.50;16.73;;;;;;;1.42;100.00;97024.75;5064099;28;20193;-79
2023/11/28 06:12:54;;;;;;;20.00;17.77;;;;;;;1.42;100.00;97032.66;5037525;28;20196;-80
2023/11/28 06:15:22;;;;;;;19.03;16.93;;;;;;;1.43;100.00;97015.81;5047771;28;20238;-81
2023/11/28 06:17:49;;;;;;;18.60;16.17;;;;;;;1.45;100.00;97019.03;5065552;28;20192;-80
2023/11/28 06:20:17;;;;;;;19.40;17.20;;;;;;;1.45;100.00;97017.19;5045986;28;20212;-79
2023/11/28 06:22:49;;;;;;;19.40;16.53;;;;;;;1.47;100.00;97016.97;5052353;28;20217;-81
2023/11/28 06:25:16;;;;;;;18.40;16.43;;;;;;;1.48;100.00;97018.59;5058744;28;20197;-78
2023/11/28 06:27:45;;;;;;;19.57;16.57;;;;;;;1.48;100.00;97019.41;5073397;28;20720;-80
2023/11/28 06:30:12;;;;;;;20.40;17.03;;;;;;;1.50;100.00;97019.97;5020872;28;20666;-78
2023/11/28 06:32:42;;;;;;;19.00;17.00;;;;;;;1.50;100.00;97022.59;5074379;28;20200;-79
2023/11/28 06:35:10;;;;;;;18.47;16.50;;;;;;;1.51;100.00;97018.94;5062446;28;20228;-78
2023/11/28 06:37:38;;;;;;;19.27;17.00;;;;;;;1.53;100.00;97018.72;5051198;28;20211;-79
2023/11/28 06:40:08;;;;;;;20.77;17.30;;;;;;;1.55;100.00;97021.91;5065764;28;20209;-78
2023/11/28 06:42:36;;;;;;;18.83;16.57;;;;;;;1.57;100.00;97018.03;5095864;28;20306;-79
2023/11/28 06:45:08;;;;;;;21.03;17.80;;;;;;;1.60;100.00;97019.41;5100241;28;20191;-80
2023/11/28 06:47:38;;;;;;;21.20;18.13;;;;;;;1.65;100.00;97020.34;5096679;28;20257;-80
2023/11/28 06:50:10;;;;;;;23.50;18.73;;;;;;;1.67;100.00;97025.41;5099487;28;20309;-81
2023/11/28 06:52:52;;;;;;;22.03;18.33;;;;;;;1.70;100.00;97022.31;5076642;28;20313;-79
2023/11/28 06:55:23;;;;;;;23.10;19.60;;;;;;;1.71;100.00;97024.72;5088942;28;20285;-79
2023/11/28 06:57:53;;;;;;;20.97;18.07;;;;;;;1.74;100.00;97029.53;5099515;28;20201;-80
2023/11/28 07:00:20;;;;;;;19.37;17.27;;;;;;;1.77;100.00;97021.16;5095348;28;20214;-80
2023/11/28 07:02:50;;;;;;;19.30;17.27;;;;;;;1.77;100.00;97017.75;5103247;28;20216;-79
2023/11/28 07:05:17;;;;;;;19.67;16.67;;;;;;;1.76;100.00;97022.22;5111931;28;20279;-80
2023/11/28 07:07:46;;;;;;;17.80;15.90;;;;;;;1.76;100.00;97024.06;5089852;28;20204;-80
2023/11/28 07:10:16;;;;;;;18.67;16.70;;;;;;;1.81;100.00;97016.25;5096157;28;20192;-80
2023/11/28 07:12:43;;;;;;;20.27;17.23;;;;;;;1.84;100.00;97013.16;5106681;28;20191;-82
2023/11/28 07:15:33;;;;;;;19.60;17.07;;;;;;;1.89;100.00;97015.91;5109912;28;20213;-81
2023/11/28 07:18:00;;;;;;;21.40;19.20;;;;;;;1.89;100.00;97015.09;5100448;28;20682;-81
2023/11/28 07:20:30;;;;;;;18.23;16.33;;;;;;;1.94;100.00;97012.59;5106209;28;20195;-80
2023/11/28 07:22:57;;;;;;;18.67;16.77;;;;;;;1.93;100.00;97014.44;5083202;28;20251;-82
2023/11/28 07:25:25;;;;;;;19.90;17.03;;;;;;;1.93;100.00;97017.06;5097277;28;20196;-80
2023/11/28 07:27:53;;;;;;;18.37;15.80;;;;;;;1.88;100.00;97010.84;5092882;28;20204;-81
2023/11/28 07:30:20;;;;;;;17.30;15.50;;;;;;;1.89;100.00;97012.47;5106520;28;20196;-79
2023/11/28 07:32:51;;;;;;;16.97;15.00;;;;;;;1.94;100.00;97012.59;5100764;28;20206;-80
2023/11/28 07:35:18;;;;;;;19.10;16.37;;;;;;;1.93;100.00;97006.50;5104500;28;20200;-78
2023/11/28 07:37:45;;;;;;;17.77;15.93;;;;;;;1.91;100.00;97008.59;5104187;28;20283;-81
2023/11/28 07:40:12;;;;;;;17.50;15.70;;;;;;;1.99;100.00;97002.16;5093173;28;20245;-78
2023/11/28 07:42:47;;;;;;;16.90;15.20;;;;;;;2.05;100.00;96994.09;5094429;28;20240;-80
2023/11/28 07:45:14;;;;;;;18.37;16.20;;;;;;;2.14;100.00;97007.78;5074397;28;20287;-80
2023/11/28 07:47:41;;;;;;;23.93;20.30;;;;;;;2.12;100.00;96997.44;5106126;28;20198;-80
2023/11/28 07:50:08;;;;;;;21.13;18.93;;;;;;;2.15;100.00;96993.53;5086297;28;20323;-80
2023/11/28 07:52:36;;;;;;;19.73;17.43;;;;;;;2.13;100.00;96993.78;5100003;28;20659;-79
2023/11/28 07:55:04;;;;;;;19.30;17.17;;;;;;;2.19;100.00;96994.72;5095147;28;20246;-79
2023/11/28 07:57:30;;;;;;;20.87;16.80;;;;;;;2.31;100.00;96992.03;5101962;28;20245;-82
2023/11/28 07:59:59;;;;;;;18.60;16.70;;;;;;;2.38;100.00;96998.03;5101229;28;20206;-80
2023/11/28 08:02:27;;;;;;;19.90;17.43;;;;;;;2.48;100.00;97003.50;5095356;28;20208;-81
2023/11/28 08:04:54;;;;;;;20.50;17.50;;;;;;;2.55;100.00;97001.56;5087837;28;20212;-80
2023/11/28 08:07:22;;;;;;;18.50;16.50;;;;;;;2.55;100.00;97006.84;5095373;28;20660;-78
2023/11/28 08:09:51;;;;;;;19.80;17.70;;;;;;;2.63;100.00;97007.28;5096332;28;20198;-79
2023/11/28 08:12:18;;;;;;;21.07;18.73;;;;;;;2.66;100.00;97003.38;5100319;28;20192;-78
2023/11/28 08:14:45;;;;;;;20.40;18.30;;;;;;;2.66;100.00;97004.16;5104647;28;20207;-80
2023/11/28 08:17:16;;;;;;;21.97;18.37;;;;;;;2.70;100.00;97007.19;5081528;28;20187;-81
2023/11/28 08:19:42;;;;;;;18.47;16.57;;;;;;;2.81;100.00;97008.97;5095060;28;20188;-78
2023/11/28 08:22:10;;;;;;;18.63;16.23;;;;;;;2.87;100.00;97008.03;5094650;28;20215;-79
2023/11/28 08:24:39;;;;;;;17.60;15.73;;;;;;;2.92;100.00;96996.75;5093905;28;20195;-80
2023/11/28 08:27:10;;;;;;;17.67;15.80;;;;;;;2.99;100.00;97000.06;5097502;28;20180;-78
2023/11/28 08:29:37;;;;;;;17.20;15.50;;;;;;;2.97;100.00;97005.59;5115096;28;20187;-79
2023/11/28 08:32:08;;;;;;;16.53;14.23;;;;;;;2.97;100.00;96997.69;5103296;28;20200;-80
2023/11/28 08:34:35;;;;;;;17.80;14.40;;;;;;;2.99;100.00;97000.06;5094789;28;20195;-79
2023/11/28 08:37:03;;;;;;;16.20;14.50;;;;;;;3.06;100.00;97006.84;5094776;28;20195;-80
2023/11/28 08:39:32;;;;;;;16.60;14.90;;;;;;;3.13;100.00;96996.09;5093580;28;20188;-80
2023/11/28 08:42:00;;;;;;;17.23;14.57;;;;;;;3.21;100.00;96994.94;5101665;28;20219;-80
2023/11/28 08:44:27;;;;;;;16.13;14.43;;;;;;;3.26;100.00;97000.34;5098033;28;20196;-80
2023/11/28 08:46:57;;;;;;;17.27;13.70;;;;;;;3.34;100.00;96994.66;5105415;28;20193;-78
2023/11/28 08:49:27;;;;;;;15.93;13.73;;;;;;;3.40;100.00;96997.16;5106153;28;20692;-81
2023/11/28 08:51:58;;;;;;;16.20;14.50;;;;;;;3.47;100.00;96992.50;5106105;28;20260;-78
2023/11/28 08:54:29;;;;;;;15.80;13.97;;;;;;;3.56;100.00;96990.28;5114732;28;20191;-81
2023/11/28 08:56:58;;;;;;;15.97;14.10;;;;;;;3.66;100.00;96992.28;5087556;28;20199;-81
2023/11/28 08:59:24;;;;;;;16.03;14.33;;;;;;;3.75;100.00;96998.81;5092900;28;20656;-79
2023/11/28 09:01:53;;;;;;;14.90;13.30;;;;;;;3.82;100.00;96984.38;5087015;28;20208;-79
2023/11/28 09:04:23;;;;;;;14.80;13.13;;;;;;;3.85;100.00;96996.31;5095715;28;20234;-80
2023/11/28 09:06:52;;;;;;;17.07;14.50;;;;;;;3.92;100.00;96991.66;5103092;28;20187;-80
2023/11/28 09:09:20;;;;;;;18.23;15.97;;;;;;;4.01;100.00;96984.13;5083457;28;20192;-79
2023/11/28 09:11:50;;;;;;;14.87;13.27;;;;;;;4.07;100.00;96986.59;5081977;28;20238;-80
2023/11/28 09:14:19;;;;;;;16.33;13.73;;;;;;;4.08;100.00;96979.47;5105371;28;20184;-80
2023/11/28 09:16:47;;;;;;;15.23;13.73;;;;;;;4.17;100.00;96978.81;5100757;28;20207;-79
2023/11/28 09:19:17;;;;;;;13.93;12.47;;;;;;;4.24;100.00;96979.44;5110282;28;20616;-80
2023/11/28 09:21:44;;;;;;;14.10;12.70;;;;;;;4.39;100.00;96977.00;5092312;28;20204;-80
2023/11/28 09:24:14;;;;;;;14.07;12.27;;;;;;;4.54;100.00;96983.56;5108512;28;20750;-81
2023/11/28 09:26:41;;;;;;;13.23;11.93;;;;;;;4.67;100.00;96978.69;5079809;28;20195;-80
2023/11/28 09:29:11;;;;;;;14.00;12.47;;;;;;;4.81;100.00;96971.97;5082741;28;20274;-79
2023/11/28 09:31:38;;;;;;;13.87;11.90;;;;;;;4.98;100.00;96965.81;5107555;28;20216;-80
2023/11/28 09:34:05;;;;;;;12.53;11.30;;;;;;;5.10;100.00;96966.47;5064673;28;20198;-80
2023/11/28 09:36:38;;;;;;;12.90;11.53;;;;;;;5.24;100.00;96968.47;5101393;28;20192;-79
2023/11/28 09:39:05;;;;;;;13.03;11.70;;;;;;;5.33;100.00;96960.88;5095637;28;20237;-79
2023/11/28 09:41:35;;;;;;;13.50;11.67;;;;;;;5.40;100.00;96965.97;5101938;28;20207;-80
2023/11/28 09:44:17;;;;;;;13.40;12.00;;;;;;;5.44;100.00;96959.13;5084204;28;20215;-79
2023/11/28 09:46:48;;;;;;;13.67;12.13;;;;;;;5.47;100.00;96963.91;5098743;28;20207;-79
2023/11/28 09:49:22;;;;;;;13.57;12.00;;;;;;;5.54;100.00;96956.56;5106096;28;20231;-79
2023/11/28 09:51:53;;;;;;;16.00;11.87;;;;;;;5.57;100.00;96959.50;5094441;28;20199;-79
2023/11/28 09:54:22;;;;;;;13.40;11.13;;;;;;;5.61;100.00;96957.13;5083078;28;20199;-79
2023/11/28 09:56:50;;;;;;;13.87;11.77;;;;;;;5.68;100.00;96961.22;5095807;28;20192;-79
2023/11/28 09:59:19;;;;;;;12.83;11.43;;;;;;;5.70;100.00;96951.13;5102837;28;20187;-79
2023/11/28 10:01:46;;;;;;;13.80;12.00;;;;;;;5.76;100.00;96954.63;5106838;28;20212;-79
2023/11/28 10:04:16;;;;;;;15.13;11.70;;;;;;;5.81;100.00;96957.31;5078531;28;20700;-80
2023/11/28 10:06:51;;;;;;;14.60;11.80;;;;;;;5.87;100.00;96947.56;5085168;28;20191;-78
2023/11/28 10:09:19;;;;;;;13.90;11.47;;;;;;;5.89;100.00;96945.44;5100919;28;20245;-78
2023/11/28 10:11:49;;;;;;;17.30;13.43;;;;;;;5.87;100.00;96942.25;5098244;28;20540;-79
2023/11/28 10:14:19;;;;;;;19.47;13.53;;;;;;;5.86;100.00;96936.09;5092077;28;20203;-80
2023/11/28 10:16:51;;;;;;;17.10;12.17;;;;;;;5.85;100.00;96947.78;5099519;28;20204;-82
2023/11/28 10:19:23;;;;;;;20.83;14.67;;;;;;;5.89;100.00;96935.63;5099243;28;20230;-79
2023/11/28 10:21:50;;;;;;;21.67;14.90;;;;;;;5.92;100.00;96945.75;5095829;28;20188;-80
2023/11/28 10:24:18;;;;;;;22.53;14.93;;;;;;;5.98;100.00;96930.63;5092967;28;20188;-80
2023/11/28 10:26:47;;;;;;;12.90;11.30;;;;;;;6.00;100.00;96932.00;5095354;28;20192;-80
2023/11/28 10:29:17;;;;;;;15.10;11.93;;;;;;;6.02;100.00;96932.50;5105698;28;20196;-80
2023/11/28 10:31:49;;;;;;;17.33;12.10;;;;;;;6.06;100.00;96938.16;5092306;28;20744;-79
2023/11/28 10:34:18;;;;;;;17.90;11.07;;;;;;;6.06;100.00;96935.47;5106677;28;20217;-78
2023/11/28 10:36:45;;;;;;;12.77;10.30;;;;;;;6.13;100.00;96931.53;5094652;28;20188;-78
2023/11/28 10:39:18;;;;;;;11.90;9.77;;;;;;;6.08;100.00;96936.81;5099722;28;20188;-79
2023/11/28 10:41:47;;;;;;;12.63;9.27;;;;;;;6.05;100.00;96931.22;5083658;28;20207;-80
2023/11/28 10:44:14;;;;;;;11.50;9.97;;;;;;;6.04;100.00;96932.28;5102856;28;20196;-79
2023/11/28 10:46:41;;;;;;;11.53;9.17;;;;;;;6.03;100.00;96931.47;5098104;28;20188;-79
2023/11/28 10:49:09;;;;;;;10.83;9.60;;;;;;;6.05;100.00;96931.22;5093572;28;20231;-79
2023/11/28 10:51:38;;;;;;;10.07;9.07;;;;;;;6.16;100.00;96936.31;5087849;28;20199;-80
2023/11/28 10:54:07;;;;;;;13.47;9.80;;;;;;;6.23;100.00;96933.47;5097084;28;20192;-79
2023/11/28 10:56:49;;;;;;;13.30;9.93;;;;;;;6.19;100.00;96930.53;5070368;28;20232;-79
2023/11/28 10:59:35;;;;;;;12.57;9.83;;;;;;;6.30;100.00;96931.34;5100284;28;20203;-80
2023/11/28 11:02:04;;;;;;;16.30;12.23;;;;;;;6.34;100.00;96939.66;5096820;28;20195;-77
2023/11/28 11:04:34;;;;;;;12.23;10.40;;;;;;;6.45;100.00;96934.09;5086133;28;20220;-78
2023/11/28 11:07:01;;;;;;;12.10;9.13;;;;;;;6.47;100.00;96936.53;5096928;28;20198;-80
2023/11/28 11:09:31;;;;;;;9.60;8.60;;;;;;;6.51;100.00;96935.75;5095851;28;20211;-80
2023/11/28 11:11:58;;;;;;;7.60;6.80;;;;;;;6.52;100.00;96940.00;5095567;28;20200;-79
2023/11/28 11:14:40;;;;;;;12.00;9.60;;;;;;;6.62;100.00;96942.69;5089398;28;20691;-80
2023/11/28 11:17:25;;;;;;;11.67;8.67;;;;;;;6.74;100.00;96925.72;5096485;28;20193;-80
2023/11/28 11:19:54;;;;;;;22.60;15.73;;;;;;;6.85;100.00;96927.38;5085667;28;20623;-80
2023/11/28 11:22:31;;;;;;;9.60;8.60;;;;;;;6.88;100.00;96932.97;5095096;28;20229;-79
2023/11/28 11:25:03;;;;;;;12.50;9.97;;;;;;;6.88;100.00;96927.66;5090626;28;20703;-79
2023/11/28 11:27:32;;;;;;;6.70;6.10;;;;;;;6.93;100.00;96933.00;5092585;28;20230;-80